sensor_id;sensor_type;location;lat;lon;timestamp;temperature;humidity
64501;DHT22;50874;24.150;-110.320;2024-02-04T00:02:02;23.90;99.90
64501;DHT22;50874;24.150;-110.320;2024-02-04T00:04:30;23.70;99.90
64501;DHT22;50874;24.150;-110.320;2024-02-04T00:06:58;23.40;99.90
64501;DHT22;50874;24.150;-110.320;2024-02-04T00:09:25;23.10;99.90
64501;DHT22;50874;24.150;-110.320;2024-02-04T00:11:54;23.10;99.90
64501;DHT22;50874;24.150;-110.320;2024-02-04T00:14:20;23.10;99.90
64501;DHT22;50874;24.150;-110.320;2024-02-04T00:16:47;23.00;99.90
64501;DHT22;50874;24.150;-110.320;2024-02-04T00:19:13;22.80;99.90
64501;DHT22;50874;24.150;-110.320;2024-02-04T00:21:40;22.90;99.90
64501;DHT22;50874;24.150;-110.320;2024-02-04T00:24:07;22.90;99.90
64501;DHT22;50874;24.150;-110.320;2024-02-04T00:26:34;22.80;99.90
64501;DHT22;50874;24.150;-110.320;2024-02-04T00:29:00;22.90;99.90
64501;DHT22;50874;24.150;-110.320;2024-02-04T00:31:27;22.80;99.90
64501;DHT22;50874;24.150;-110.320;2024-02-04T00:33:53;22.80;99.90
64501;DHT22;50874;24.150;-110.320;2024-02-04T00:36:20;22.60;99.90
64501;DHT22;50874;24.150;-110.320;2024-02-04T00:38:47;22.50;99.90
64501;DHT22;50874;24.150;-110.320;2024-02-04T00:41:14;22.20;99.90
64501;DHT22;50874;24.150;-110.320;2024-02-04T00:43:41;22.10;99.90
64501;DHT22;50874;24.150;-110.320;2024-02-04T00:46:08;22.00;99.90
64501;DHT22;50874;24.150;-110.320;2024-02-04T00:48:37;22.00;99.90
64501;DHT22;50874;24.150;-110.320;2024-02-04T00:51:03;21.90;99.90
64501;DHT22;50874;24.150;-110.320;2024-02-04T00:53:30;21.90;99.90
64501;DHT22;50874;24.150;-110.320;2024-02-04T00:56:03;21.80;99.90
64501;DHT22;50874;24.150;-110.320;2024-02-04T00:58:30;21.80;99.90
64501;DHT22;50874;24.150;-110.320;2024-02-04T01:00:56;21.70;99.90
64501;DHT22;50874;24.150;-110.320;2024-02-04T01:03:23;21.50;99.90
64501;DHT22;50874;24.150;-110.320;2024-02-04T01:05:50;21.50;99.90
64501;DHT22;50874;24.150;-110.320;2024-02-04T01:08:16;21.40;99.90
64501;DHT22;50874;24.150;-110.320;2024-02-04T01:10:43;21.30;99.90
64501;DHT22;50874;24.150;-110.320;2024-02-04T01:13:10;21.20;99.90
64501;DHT22;50874;24.150;-110.320;2024-02-04T01:15:36;21.00;99.90
64501;DHT22;50874;24.150;-110.320;2024-02-04T01:18:03;20.90;99.90
64501;DHT22;50874;24.150;-110.320;2024-02-04T01:20:30;20.90;99.90
64501;DHT22;50874;24.150;-110.320;2024-02-04T01:22:56;20.80;99.90
64501;DHT22;50874;24.150;-110.320;2024-02-04T01:25:23;20.80;99.90
64501;DHT22;50874;24.150;-110.320;2024-02-04T01:27:49;20.70;99.90
64501;DHT22;50874;24.150;-110.320;2024-02-04T01:30:16;20.50;99.90
64501;DHT22;50874;24.150;-110.320;2024-02-04T01:32:42;20.50;99.90
64501;DHT22;50874;24.150;-110.320;2024-02-04T01:35:09;20.50;99.90
64501;DHT22;50874;24.150;-110.320;2024-02-04T01:37:35;20.50;99.90
64501;DHT22;50874;24.150;-110.320;2024-02-04T01:40:02;20.50;99.90
64501;DHT22;50874;24.150;-110.320;2024-02-04T01:42:28;20.40;99.90
64501;DHT22;50874;24.150;-110.320;2024-02-04T01:44:55;20.30;99.90
64501;DHT22;50874;24.150;-110.320;2024-02-04T01:47:21;20.20;99.90
64501;DHT22;50874;24.150;-110.320;2024-02-04T01:49:49;20.20;99.90
64501;DHT22;50874;24.150;-110.320;2024-02-04T01:52:16;20.10;99.90
64501;DHT22;50874;24.150;-110.320;2024-02-04T01:54:43;20.10;99.90
64501;DHT22;50874;24.150;-110.320;2024-02-04T01:57:11;20.00;99.90
64501;DHT22;50874;24.150;-110.320;2024-02-04T01:59:39;20.00;99.90
64501;DHT22;50874;24.150;-110.320;2024-02-04T02:02:06;19.90;99.90
64501;DHT22;50874;24.150;-110.320;2024-02-04T02:04:33;19.90;99.90
64501;DHT22;50874;24.150;-110.320;2024-02-04T02:07:00;19.90;99.90
64501;DHT22;50874;24.150;-110.320;2024-02-04T02:09:27;19.90;99.90
64501;DHT22;50874;24.150;-110.320;2024-02-04T02:12:03;19.90;99.90
64501;DHT22;50874;24.150;-110.320;2024-02-04T02:14:33;19.80;99.90
64501;DHT22;50874;24.150;-110.320;2024-02-04T02:17:06;19.70;99.90
64501;DHT22;50874;24.150;-110.320;2024-02-04T02:19:54;19.60;99.90
64501;DHT22;50874;24.150;-110.320;2024-02-04T02:22:30;19.60;99.90
64501;DHT22;50874;24.150;-110.320;2024-02-04T02:25:03;19.60;99.90
64501;DHT22;50874;24.150;-110.320;2024-02-04T02:27:31;19.50;99.90
64501;DHT22;50874;24.150;-110.320;2024-02-04T02:29:57;19.50;99.90
64501;DHT22;50874;24.150;-110.320;2024-02-04T02:32:24;19.40;99.90
64501;DHT22;50874;24.150;-110.320;2024-02-04T02:34:50;19.40;99.90
64501;DHT22;50874;24.150;-110.320;2024-02-04T02:37:22;19.40;99.90
64501;DHT22;50874;24.150;-110.320;2024-02-04T02:40:06;19.40;99.90
64501;DHT22;50874;24.150;-110.320;2024-02-04T02:42:35;19.40;99.90
64501;DHT22;50874;24.150;-110.320;2024-02-04T02:45:02;19.30;99.90
64501;DHT22;50874;24.150;-110.320;2024-02-04T02:47:29;19.30;99.90
64501;DHT22;50874;24.150;-110.320;2024-02-04T02:49:56;19.30;99.90
64501;DHT22;50874;24.150;-110.320;2024-02-04T02:52:22;19.30;99.90
64501;DHT22;50874;24.150;-110.320;2024-02-04T02:54:49;19.20;99.90
64501;DHT22;50874;24.150;-110.320;2024-02-04T02:57:16;19.20;99.90
64501;DHT22;50874;24.150;-110.320;2024-02-04T02:59:43;19.20;99.90
64501;DHT22;50874;24.150;-110.320;2024-02-04T03:02:09;19.20;99.90
64501;DHT22;50874;24.150;-110.320;2024-02-04T03:04:37;19.10;99.90
64501;DHT22;50874;24.150;-110.320;2024-02-04T03:07:03;19.10;99.90
64501;DHT22;50874;24.150;-110.320;2024-02-04T03:09:30;19.10;99.90
64501;DHT22;50874;24.150;-110.320;2024-02-04T03:11:57;19.10;99.90
64501;DHT22;50874;24.150;-110.320;2024-02-04T03:14:23;19.10;99.90
64501;DHT22;50874;24.150;-110.320;2024-02-04T03:16:49;19.10;99.90
64501;DHT22;50874;24.150;-110.320;2024-02-04T03:19:16;19.10;99.90
64501;DHT22;50874;24.150;-110.320;2024-02-04T03:21:42;19.00;99.90
64501;DHT22;50874;24.150;-110.320;2024-02-04T03:24:09;19.00;99.90
64501;DHT22;50874;24.150;-110.320;2024-02-04T03:26:35;19.00;99.90
64501;DHT22;50874;24.150;-110.320;2024-02-04T03:29:02;19.00;99.90
64501;DHT22;50874;24.150;-110.320;2024-02-04T03:31:31;19.00;99.90
64501;DHT22;50874;24.150;-110.320;2024-02-04T03:33:57;19.00;99.90
64501;DHT22;50874;24.150;-110.320;2024-02-04T03:36:25;18.90;99.90
64501;DHT22;50874;24.150;-110.320;2024-02-04T03:38:52;18.90;99.90
64501;DHT22;50874;24.150;-110.320;2024-02-04T03:41:18;18.90;99.90
64501;DHT22;50874;24.150;-110.320;2024-02-04T03:43:45;18.90;99.90
64501;DHT22;50874;24.150;-110.320;2024-02-04T03:46:16;18.80;99.90
64501;DHT22;50874;24.150;-110.320;2024-02-04T03:48:43;18.80;99.90
64501;DHT22;50874;24.150;-110.320;2024-02-04T03:51:15;18.80;99.90
64501;DHT22;50874;24.150;-110.320;2024-02-04T03:53:43;18.80;99.90
64501;DHT22;50874;24.150;-110.320;2024-02-04T03:56:10;18.80;99.90
64501;DHT22;50874;24.150;-110.320;2024-02-04T03:58:36;18.80;99.90
64501;DHT22;50874;24.150;-110.320;2024-02-04T04:01:03;18.80;99.90
64501;DHT22;50874;24.150;-110.320;2024-02-04T04:03:30;18.70;99.90
64501;DHT22;50874;24.150;-110.320;2024-02-04T04:05:56;18.70;99.90
64501;DHT22;50874;24.150;-110.320;2024-02-04T04:08:23;18.60;99.90
64501;DHT22;50874;24.150;-110.320;2024-02-04T04:10:49;18.50;99.90
64501;DHT22;50874;24.150;-110.320;2024-02-04T04:13:16;18.40;99.90
64501;DHT22;50874;24.150;-110.320;2024-02-04T04:15:43;18.30;99.90
64501;DHT22;50874;24.150;-110.320;2024-02-04T04:18:09;18.20;99.90
64501;DHT22;50874;24.150;-110.320;2024-02-04T04:20:40;18.00;99.90
64501;DHT22;50874;24.150;-110.320;2024-02-04T04:23:06;17.90;99.90
64501;DHT22;50874;24.150;-110.320;2024-02-04T04:25:33;17.80;99.90
64501;DHT22;50874;24.150;-110.320;2024-02-04T04:28:00;17.80;99.90
64501;DHT22;50874;24.150;-110.320;2024-02-04T04:30:26;17.80;99.90
64501;DHT22;50874;24.150;-110.320;2024-02-04T04:32:53;17.70;99.90
64501;DHT22;50874;24.150;-110.320;2024-02-04T04:35:19;17.60;99.90
64501;DHT22;50874;24.150;-110.320;2024-02-04T04:37:46;17.50;99.90
64501;DHT22;50874;24.150;-110.320;2024-02-04T04:40:12;17.40;99.90
64501;DHT22;50874;24.150;-110.320;2024-02-04T04:42:39;17.40;99.90
64501;DHT22;50874;24.150;-110.320;2024-02-04T04:45:06;17.40;99.90
64501;DHT22;50874;24.150;-110.320;2024-02-04T04:47:34;17.40;99.90
64501;DHT22;50874;24.150;-110.320;2024-02-04T04:50:00;17.40;99.90
64501;DHT22;50874;24.150;-110.320;2024-02-04T04:52:27;17.40;99.90
64501;DHT22;50874;24.150;-110.320;2024-02-04T04:54:55;17.30;99.90
64501;DHT22;50874;24.150;-110.320;2024-02-04T04:57:22;17.30;99.90
64501;DHT22;50874;24.150;-110.320;2024-02-04T04:59:49;17.30;99.90
64501;DHT22;50874;24.150;-110.320;2024-02-04T05:02:15;17.30;99.90
64501;DHT22;50874;24.150;-110.320;2024-02-04T05:04:45;17.30;99.90
64501;DHT22;50874;24.150;-110.320;2024-02-04T05:07:13;17.20;99.90
64501;DHT22;50874;24.150;-110.320;2024-02-04T05:09:40;17.10;99.90
64501;DHT22;50874;24.150;-110.320;2024-02-04T05:12:08;17.00;99.90
64501;DHT22;50874;24.150;-110.320;2024-02-04T05:14:36;17.00;99.90
64501;DHT22;50874;24.150;-110.320;2024-02-04T05:17:03;16.90;99.90
64501;DHT22;50874;24.150;-110.320;2024-02-04T05:19:29;16.80;99.90
64501;DHT22;50874;24.150;-110.320;2024-02-04T05:21:56;16.80;99.90
64501;DHT22;50874;24.150;-110.320;2024-02-04T05:24:22;16.80;99.90
64501;DHT22;50874;24.150;-110.320;2024-02-04T05:26:49;16.70;99.90
64501;DHT22;50874;24.150;-110.320;2024-02-04T05:29:15;16.50;99.90
64501;DHT22;50874;24.150;-110.320;2024-02-04T05:31:42;16.40;99.90
64501;DHT22;50874;24.150;-110.320;2024-02-04T05:34:10;16.30;99.90
64501;DHT22;50874;24.150;-110.320;2024-02-04T05:36:37;16.10;99.90
64501;DHT22;50874;24.150;-110.320;2024-02-04T05:39:14;15.90;99.90
64501;DHT22;50874;24.150;-110.320;2024-02-04T05:41:41;15.80;99.90
64501;DHT22;50874;24.150;-110.320;2024-02-04T05:44:08;15.70;99.90
64501;DHT22;50874;24.150;-110.320;2024-02-04T05:46:38;15.60;99.90
64501;DHT22;50874;24.150;-110.320;2024-02-04T05:49:05;15.50;99.90
64501;DHT22;50874;24.150;-110.320;2024-02-04T05:51:41;15.50;99.90
64501;DHT22;50874;24.150;-110.320;2024-02-04T05:54:08;15.50;99.90
64501;DHT22;50874;24.150;-110.320;2024-02-04T05:56:35;15.50;99.90
64501;DHT22;50874;24.150;-110.320;2024-02-04T05:59:01;15.40;99.90
64501;DHT22;50874;24.150;-110.320;2024-02-04T06:01:28;15.40;99.90
64501;DHT22;50874;24.150;-110.320;2024-02-04T06:03:54;15.30;99.90
64501;DHT22;50874;24.150;-110.320;2024-02-04T06:06:21;15.30;99.90
64501;DHT22;50874;24.150;-110.320;2024-02-04T06:08:47;15.20;99.90
64501;DHT22;50874;24.150;-110.320;2024-02-04T06:11:15;15.30;99.90
64501;DHT22;50874;24.150;-110.320;2024-02-04T06:13:43;15.20;99.90
64501;DHT22;50874;24.150;-110.320;2024-02-04T06:16:10;15.10;99.90
64501;DHT22;50874;24.150;-110.320;2024-02-04T06:18:38;15.10;99.90
64501;DHT22;50874;24.150;-110.320;2024-02-04T06:21:06;15.00;99.90
64501;DHT22;50874;24.150;-110.320;2024-02-04T06:23:33;15.00;99.90
64501;DHT22;50874;24.150;-110.320;2024-02-04T06:26:00;15.00;99.90
64501;DHT22;50874;24.150;-110.320;2024-02-04T06:28:27;15.00;99.90
64501;DHT22;50874;24.150;-110.320;2024-02-04T06:30:53;15.00;99.90
64501;DHT22;50874;24.150;-110.320;2024-02-04T06:33:20;15.00;99.90
64501;DHT22;50874;24.150;-110.320;2024-02-04T06:35:48;14.90;99.90
64501;DHT22;50874;24.150;-110.320;2024-02-04T06:38:15;14.90;99.90
64501;DHT22;50874;24.150;-110.320;2024-02-04T06:40:41;14.70;99.90
64501;DHT22;50874;24.150;-110.320;2024-02-04T06:43:08;14.70;99.90
64501;DHT22;50874;24.150;-110.320;2024-02-04T06:45:34;14.70;99.90
64501;DHT22;50874;24.150;-110.320;2024-02-04T06:48:01;14.60;99.90
64501;DHT22;50874;24.150;-110.320;2024-02-04T06:50:28;14.60;99.90
64501;DHT22;50874;24.150;-110.320;2024-02-04T06:52:55;14.60;99.90
64501;DHT22;50874;24.150;-110.320;2024-02-04T06:55:21;14.60;99.90
64501;DHT22;50874;24.150;-110.320;2024-02-04T06:57:48;14.70;99.90
64501;DHT22;50874;24.150;-110.320;2024-02-04T07:00:15;14.70;99.90
64501;DHT22;50874;24.150;-110.320;2024-02-04T07:02:42;14.70;99.90
64501;DHT22;50874;24.150;-110.320;2024-02-04T07:05:10;14.70;99.90
64501;DHT22;50874;24.150;-110.320;2024-02-04T07:07:37;14.70;99.90
64501;DHT22;50874;24.150;-110.320;2024-02-04T07:10:04;14.70;99.90
64501;DHT22;50874;24.150;-110.320;2024-02-04T07:12:31;14.80;99.90
64501;DHT22;50874;24.150;-110.320;2024-02-04T07:14:57;14.90;99.90
64501;DHT22;50874;24.150;-110.320;2024-02-04T07:17:24;14.90;99.90
64501;DHT22;50874;24.150;-110.320;2024-02-04T07:19:51;14.80;99.90
64501;DHT22;50874;24.150;-110.320;2024-02-04T07:22:17;14.80;99.90
64501;DHT22;50874;24.150;-110.320;2024-02-04T07:24:44;14.90;99.90
64501;DHT22;50874;24.150;-110.320;2024-02-04T07:27:10;14.90;99.90
64501;DHT22;50874;24.150;-110.320;2024-02-04T07:29:37;15.00;99.90
64501;DHT22;50874;24.150;-110.320;2024-02-04T07:32:03;14.90;99.90
64501;DHT22;50874;24.150;-110.320;2024-02-04T07:34:30;14.80;99.90
64501;DHT22;50874;24.150;-110.320;2024-02-04T07:36:56;14.70;99.90
64501;DHT22;50874;24.150;-110.320;2024-02-04T07:39:24;14.70;99.90
64501;DHT22;50874;24.150;-110.320;2024-02-04T07:41:50;14.60;99.90
64501;DHT22;50874;24.150;-110.320;2024-02-04T07:44:17;14.50;99.90
64501;DHT22;50874;24.150;-110.320;2024-02-04T07:46:43;14.40;99.90
64501;DHT22;50874;24.150;-110.320;2024-02-04T07:49:10;14.40;99.90
64501;DHT22;50874;24.150;-110.320;2024-02-04T07:51:36;14.30;99.90
64501;DHT22;50874;24.150;-110.320;2024-02-04T07:54:04;14.30;99.90
64501;DHT22;50874;24.150;-110.320;2024-02-04T07:56:30;14.30;99.90
64501;DHT22;50874;24.150;-110.320;2024-02-04T07:58:57;14.30;99.90
64501;DHT22;50874;24.150;-110.320;2024-02-04T08:01:23;14.30;99.90
64501;DHT22;50874;24.150;-110.320;2024-02-04T08:03:50;14.30;99.90
64501;DHT22;50874;24.150;-110.320;2024-02-04T08:06:16;14.30;99.90
64501;DHT22;50874;24.150;-110.320;2024-02-04T08:08:43;14.30;99.90
64501;DHT22;50874;24.150;-110.320;2024-02-04T08:11:10;14.20;99.90
64501;DHT22;50874;24.150;-110.320;2024-02-04T08:13:41;14.20;99.90
64501;DHT22;50874;24.150;-110.320;2024-02-04T08:16:08;14.20;99.90
64501;DHT22;50874;24.150;-110.320;2024-02-04T08:18:34;14.10;99.90
64501;DHT22;50874;24.150;-110.320;2024-02-04T08:21:01;14.10;99.90
64501;DHT22;50874;24.150;-110.320;2024-02-04T08:23:28;14.00;99.90
64501;DHT22;50874;24.150;-110.320;2024-02-04T08:25:54;14.00;99.90
64501;DHT22;50874;24.150;-110.320;2024-02-04T08:28:22;13.80;99.90
64501;DHT22;50874;24.150;-110.320;2024-02-04T08:30:52;13.60;99.90
64501;DHT22;50874;24.150;-110.320;2024-02-04T08:33:23;13.60;99.90
64501;DHT22;50874;24.150;-110.320;2024-02-04T08:35:50;13.50;99.90
64501;DHT22;50874;24.150;-110.320;2024-02-04T08:38:16;13.40;99.90
64501;DHT22;50874;24.150;-110.320;2024-02-04T08:40:43;13.30;99.90
64501;DHT22;50874;24.150;-110.320;2024-02-04T08:43:09;13.40;99.90
64501;DHT22;50874;24.150;-110.320;2024-02-04T08:45:36;13.40;99.90
64501;DHT22;50874;24.150;-110.320;2024-02-04T08:48:02;13.30;99.90
64501;DHT22;50874;24.150;-110.320;2024-02-04T08:50:29;13.40;99.90
64501;DHT22;50874;24.150;-110.320;2024-02-04T08:52:56;13.20;99.90
64501;DHT22;50874;24.150;-110.320;2024-02-04T08:55:22;13.10;99.90
64501;DHT22;50874;24.150;-110.320;2024-02-04T08:57:49;13.10;99.90
64501;DHT22;50874;24.150;-110.320;2024-02-04T09:00:16;13.00;99.90
64501;DHT22;50874;24.150;-110.320;2024-02-04T09:02:43;12.90;99.90
64501;DHT22;50874;24.150;-110.320;2024-02-04T09:05:09;12.70;99.90
64501;DHT22;50874;24.150;-110.320;2024-02-04T09:07:36;12.60;99.90
64501;DHT22;50874;24.150;-110.320;2024-02-04T09:10:02;12.60;99.90
64501;DHT22;50874;24.150;-110.320;2024-02-04T09:12:29;12.60;99.90
64501;DHT22;50874;24.150;-110.320;2024-02-04T09:14:56;12.50;99.90
64501;DHT22;50874;24.150;-110.320;2024-02-04T09:17:22;12.40;99.90
64501;DHT22;50874;24.150;-110.320;2024-02-04T09:19:49;12.40;99.90
64501;DHT22;50874;24.150;-110.320;2024-02-04T09:22:15;12.30;99.90
64501;DHT22;50874;24.150;-110.320;2024-02-04T09:24:42;12.30;99.90
64501;DHT22;50874;24.150;-110.320;2024-02-04T09:27:09;12.40;99.90
64501;DHT22;50874;24.150;-110.320;2024-02-04T09:29:35;12.30;99.90
64501;DHT22;50874;24.150;-110.320;2024-02-04T09:32:02;12.30;99.90
64501;DHT22;50874;24.150;-110.320;2024-02-04T09:34:28;12.30;99.90
64501;DHT22;50874;24.150;-110.320;2024-02-04T09:36:55;12.20;99.90
64501;DHT22;50874;24.150;-110.320;2024-02-04T09:39:21;12.20;99.90
64501;DHT22;50874;24.150;-110.320;2024-02-04T09:41:48;12.20;99.90
64501;DHT22;50874;24.150;-110.320;2024-02-04T09:44:15;12.20;99.90
64501;DHT22;50874;24.150;-110.320;2024-02-04T09:46:42;12.20;99.90
64501;DHT22;50874;24.150;-110.320;2024-02-04T09:49:09;12.20;99.90
64501;DHT22;50874;24.150;-110.320;2024-02-04T09:51:35;12.20;99.90
64501;DHT22;50874;24.150;-110.320;2024-02-04T09:54:05;12.20;99.90
64501;DHT22;50874;24.150;-110.320;2024-02-04T09:56:36;12.10;99.90
64501;DHT22;50874;24.150;-110.320;2024-02-04T09:59:03;12.10;99.90
64501;DHT22;50874;24.150;-110.320;2024-02-04T10:01:33;12.00;99.90
64501;DHT22;50874;24.150;-110.320;2024-02-04T10:04:01;12.10;99.90
64501;DHT22;50874;24.150;-110.320;2024-02-04T10:06:28;12.10;99.90
64501;DHT22;50874;24.150;-110.320;2024-02-04T10:08:54;12.10;99.90
64501;DHT22;50874;24.150;-110.320;2024-02-04T10:11:21;12.20;99.90
64501;DHT22;50874;24.150;-110.320;2024-02-04T10:13:49;12.20;99.90
64501;DHT22;50874;24.150;-110.320;2024-02-04T10:16:17;12.20;99.90
64501;DHT22;50874;24.150;-110.320;2024-02-04T10:18:47;12.20;99.90
64501;DHT22;50874;24.150;-110.320;2024-02-04T10:21:24;12.20;99.90
64501;DHT22;50874;24.150;-110.320;2024-02-04T10:23:51;12.20;99.90
64501;DHT22;50874;24.150;-110.320;2024-02-04T10:26:18;12.20;99.90
64501;DHT22;50874;24.150;-110.320;2024-02-04T10:28:48;12.20;99.90
64501;DHT22;50874;24.150;-110.320;2024-02-04T10:31:15;12.20;99.90
64501;DHT22;50874;24.150;-110.320;2024-02-04T10:33:41;12.20;99.90
64501;DHT22;50874;24.150;-110.320;2024-02-04T10:36:08;12.20;99.90
64501;DHT22;50874;24.150;-110.320;2024-02-04T10:38:35;12.30;99.90
64501;DHT22;50874;24.150;-110.320;2024-02-04T10:41:02;12.30;99.90
64501;DHT22;50874;24.150;-110.320;2024-02-04T10:43:32;12.20;99.90
64501;DHT22;50874;24.150;-110.320;2024-02-04T10:46:18;12.20;99.90
64501;DHT22;50874;24.150;-110.320;2024-02-04T10:48:54;12.20;99.90
64501;DHT22;50874;24.150;-110.320;2024-02-04T10:51:24;12.30;99.90
64501;DHT22;50874;24.150;-110.320;2024-02-04T10:53:54;12.30;99.90
64501;DHT22;50874;24.150;-110.320;2024-02-04T10:56:29;12.30;99.90
64501;DHT22;50874;24.150;-110.320;2024-02-04T10:58:57;12.40;99.90
64501;DHT22;50874;24.150;-110.320;2024-02-04T11:01:26;12.40;99.90
64501;DHT22;50874;24.150;-110.320;2024-02-04T11:03:53;12.50;99.90
64501;DHT22;50874;24.150;-110.320;2024-02-04T11:06:23;12.50;99.90
64501;DHT22;50874;24.150;-110.320;2024-02-04T11:08:52;12.50;99.90
64501;DHT22;50874;24.150;-110.320;2024-02-04T11:11:19;12.60;99.90
64501;DHT22;50874;24.150;-110.320;2024-02-04T11:13:48;12.60;99.90
64501;DHT22;50874;24.150;-110.320;2024-02-04T11:16:50;12.70;99.90
64501;DHT22;50874;24.150;-110.320;2024-02-04T11:27:33;12.70;99.90
64501;DHT22;50874;24.150;-110.320;2024-02-04T11:29:59;12.70;99.90
64501;DHT22;50874;24.150;-110.320;2024-02-04T11:32:26;12.60;99.90
64501;DHT22;50874;24.150;-110.320;2024-02-04T11:34:54;12.60;99.90
64501;DHT22;50874;24.150;-110.320;2024-02-04T11:37:21;12.50;99.90
64501;DHT22;50874;24.150;-110.320;2024-02-04T11:39:51;12.50;99.90
64501;DHT22;50874;24.150;-110.320;2024-02-04T11:42:18;12.50;99.90
64501;DHT22;50874;24.150;-110.320;2024-02-04T11:44:46;12.40;99.90
64501;DHT22;50874;24.150;-110.320;2024-02-04T11:47:23;12.40;99.90
64501;DHT22;50874;24.150;-110.320;2024-02-04T11:49:59;12.30;99.90
64501;DHT22;50874;24.150;-110.320;2024-02-04T11:52:28;12.30;99.90
64501;DHT22;50874;24.150;-110.320;2024-02-04T11:54:55;12.30;99.90
64501;DHT22;50874;24.150;-110.320;2024-02-04T11:57:23;12.30;99.90
64501;DHT22;50874;24.150;-110.320;2024-02-04T11:59:51;12.30;99.90
64501;DHT22;50874;24.150;-110.320;2024-02-04T12:02:20;12.40;99.90
64501;DHT22;50874;24.150;-110.320;2024-02-04T12:04:50;12.40;99.90
64501;DHT22;50874;24.150;-110.320;2024-02-04T12:07:17;12.50;99.90
64501;DHT22;50874;24.150;-110.320;2024-02-04T12:09:45;12.60;99.90
64501;DHT22;50874;24.150;-110.320;2024-02-04T12:12:12;12.70;99.90
64501;DHT22;50874;24.150;-110.320;2024-02-04T12:14:39;12.70;99.90
64501;DHT22;50874;24.150;-110.320;2024-02-04T12:17:12;12.80;99.90
64501;DHT22;50874;24.150;-110.320;2024-02-04T12:19:39;12.90;99.90
64501;DHT22;50874;24.150;-110.320;2024-02-04T12:22:06;12.80;99.90
64501;DHT22;50874;24.150;-110.320;2024-02-04T12:24:38;12.80;99.90
64501;DHT22;50874;24.150;-110.320;2024-02-04T12:27:05;12.80;99.90
64501;DHT22;50874;24.150;-110.320;2024-02-04T12:29:33;12.80;99.90
64501;DHT22;50874;24.150;-110.320;2024-02-04T12:32:00;12.70;99.90
64501;DHT22;50874;24.150;-110.320;2024-02-04T12:34:27;12.70;99.90
64501;DHT22;50874;24.150;-110.320;2024-02-04T12:37:00;12.70;99.90
64501;DHT22;50874;24.150;-110.320;2024-02-04T12:39:28;12.70;99.90
64501;DHT22;50874;24.150;-110.320;2024-02-04T12:41:54;12.60;99.90
64501;DHT22;50874;24.150;-110.320;2024-02-04T12:44:21;12.60;99.90
64501;DHT22;50874;24.150;-110.320;2024-02-04T12:46:51;12.50;99.90
64501;DHT22;50874;24.150;-110.320;2024-02-04T12:49:19;12.50;99.90
64501;DHT22;50874;24.150;-110.320;2024-02-04T12:51:49;12.40;99.90
64501;DHT22;50874;24.150;-110.320;2024-02-04T12:54:19;12.30;99.90
64501;DHT22;50874;24.150;-110.320;2024-02-04T12:56:50;12.30;99.90
64501;DHT22;50874;24.150;-110.320;2024-02-04T12:59:30;12.20;99.90
64501;DHT22;50874;24.150;-110.320;2024-02-04T13:02:06;12.20;99.90
64501;DHT22;50874;24.150;-110.320;2024-02-04T13:04:40;12.10;99.90
64501;DHT22;50874;24.150;-110.320;2024-02-04T13:07:12;12.10;99.90
64501;DHT22;50874;24.150;-110.320;2024-02-04T13:09:40;12.00;99.90
64501;DHT22;50874;24.150;-110.320;2024-02-04T13:12:08;12.00;99.90
64501;DHT22;50874;24.150;-110.320;2024-02-04T13:14:36;12.00;99.90
64501;DHT22;50874;24.150;-110.320;2024-02-04T13:17:03;11.90;99.90
64501;DHT22;50874;24.150;-110.320;2024-02-04T13:19:34;11.90;99.90
64501;DHT22;50874;24.150;-110.320;2024-02-04T13:22:01;11.90;99.90
64501;DHT22;50874;24.150;-110.320;2024-02-04T13:24:28;11.80;99.90
64501;DHT22;50874;24.150;-110.320;2024-02-04T13:26:54;11.80;99.90
64501;DHT22;50874;24.150;-110.320;2024-02-04T13:29:21;11.80;99.90
64501;DHT22;50874;24.150;-110.320;2024-02-04T13:31:47;11.80;99.90
64501;DHT22;50874;24.150;-110.320;2024-02-04T13:34:14;11.80;99.90
64501;DHT22;50874;24.150;-110.320;2024-02-04T13:36:43;11.80;99.90
64501;DHT22;50874;24.150;-110.320;2024-02-04T13:39:09;11.80;99.90
64501;DHT22;50874;24.150;-110.320;2024-02-04T13:41:41;11.80;99.90
64501;DHT22;50874;24.150;-110.320;2024-02-04T13:44:08;11.80;99.90
64501;DHT22;50874;24.150;-110.320;2024-02-04T13:46:35;11.80;99.90
64501;DHT22;50874;24.150;-110.320;2024-02-04T13:49:02;11.80;99.90
64501;DHT22;50874;24.150;-110.320;2024-02-04T13:51:29;11.80;99.90
64501;DHT22;50874;24.150;-110.320;2024-02-04T13:53:56;11.80;99.90
64501;DHT22;50874;24.150;-110.320;2024-02-04T13:56:22;11.80;99.90
64501;DHT22;50874;24.150;-110.320;2024-02-04T13:58:48;11.70;99.90
64501;DHT22;50874;24.150;-110.320;2024-02-04T14:01:15;11.70;99.90
64501;DHT22;50874;24.150;-110.320;2024-02-04T14:03:41;11.70;99.90
64501;DHT22;50874;24.150;-110.320;2024-02-04T14:06:08;11.70;99.90
64501;DHT22;50874;24.150;-110.320;2024-02-04T14:08:34;11.70;99.90
64501;DHT22;50874;24.150;-110.320;2024-02-04T14:11:01;11.70;99.90
64501;DHT22;50874;24.150;-110.320;2024-02-04T14:13:28;11.70;99.90
64501;DHT22;50874;24.150;-110.320;2024-02-04T14:15:54;11.80;99.90
64501;DHT22;50874;24.150;-110.320;2024-02-04T14:18:20;11.80;99.90
64501;DHT22;50874;24.150;-110.320;2024-02-04T14:20:47;11.80;99.90
64501;DHT22;50874;24.150;-110.320;2024-02-04T14:23:13;11.70;99.90
64501;DHT22;50874;24.150;-110.320;2024-02-04T14:25:40;11.60;99.90
64501;DHT22;50874;24.150;-110.320;2024-02-04T14:28:06;11.50;99.90
64501;DHT22;50874;24.150;-110.320;2024-02-04T14:30:33;11.50;99.90
64501;DHT22;50874;24.150;-110.320;2024-02-04T14:32:59;11.50;99.90
64501;DHT22;50874;24.150;-110.320;2024-02-04T14:35:26;11.50;99.90
64501;DHT22;50874;24.150;-110.320;2024-02-04T14:37:52;11.50;99.90
64501;DHT22;50874;24.150;-110.320;2024-02-04T14:40:19;11.50;99.90
64501;DHT22;50874;24.150;-110.320;2024-02-04T14:42:46;11.50;99.90
64501;DHT22;50874;24.150;-110.320;2024-02-04T14:45:12;11.60;99.90
64501;DHT22;50874;24.150;-110.320;2024-02-04T14:47:39;11.60;99.90
64501;DHT22;50874;24.150;-110.320;2024-02-04T14:50:06;11.80;99.90
64501;DHT22;50874;24.150;-110.320;2024-02-04T14:52:33;11.80;99.90
64501;DHT22;50874;24.150;-110.320;2024-02-04T14:54:59;11.90;99.90
64501;DHT22;50874;24.150;-110.320;2024-02-04T14:57:26;12.00;99.90
64501;DHT22;50874;24.150;-110.320;2024-02-04T14:59:52;12.10;99.90